createdAt,value
2023-01-09T00:02:02.840Z,-3.72
2023-01-09T00:04:29.448Z,-3.85
2023-01-09T00:06:56.281Z,-3.87
2023-01-09T00:09:23.423Z,-3.98
2023-01-09T00:11:50.170Z,-3.65
2023-01-09T00:14:17.233Z,-3.60
2023-01-09T00:16:44.030Z,-3.71
2023-01-09T00:19:10.903Z,-3.54
2023-01-09T00:21:37.792Z,-3.52
2023-01-09T00:24:04.971Z,-3.48
2023-01-09T00:26:31.651Z,-3.56
2023-01-09T00:28:58.421Z,-4.08
2023-01-09T00:31:25.037Z,-4.21
2023-01-09T00:34:02.608Z,-4.20
2023-01-09T00:36:29.515Z,-4.21
2023-01-09T00:38:56.263Z,-4.10
2023-01-09T00:41:35.167Z,-4.07
2023-01-09T00:44:06.999Z,-4.25
2023-01-09T00:46:34.735Z,-4.45
2023-01-09T00:49:02.055Z,-4.68
2023-01-09T00:51:28.671Z,-4.84
2023-01-09T00:53:55.360Z,-4.60
2023-01-09T00:56:21.996Z,-4.58
2023-01-09T00:58:48.718Z,-4.64
2023-01-09T01:01:15.425Z,-4.69
2023-01-09T01:03:42.216Z,-4.85
2023-01-09T01:06:27.436Z,-4.77
2023-01-09T01:08:55.942Z,-4.75
2023-01-09T01:11:22.876Z,-4.90
2023-01-09T01:13:49.674Z,-4.80
2023-01-09T01:16:18.306Z,-5.09
2023-01-09T01:18:45.148Z,-4.97
2023-01-09T01:21:13.107Z,-5.03
2023-01-09T01:23:39.966Z,-5.01
2023-01-09T01:26:11.535Z,-4.85
2023-01-09T01:28:38.233Z,-4.81
2023-01-09T01:31:05.110Z,-4.97
2023-01-09T01:33:32.210Z,-4.59
2023-01-09T01:36:06.301Z,-4.47
2023-01-09T01:38:33.146Z,-4.46
2023-01-09T01:40:59.959Z,-4.64
2023-01-09T01:43:26.606Z,-4.67
2023-01-09T01:45:53.344Z,-4.61
2023-01-09T01:48:28.237Z,-4.67
2023-01-09T01:51:05.289Z,-4.85
2023-01-09T01:53:42.063Z,-4.90
2023-01-09T01:56:26.763Z,-4.76
2023-01-09T01:59:06.079Z,-4.96
2023-01-09T02:01:33.845Z,-5.00
2023-01-09T02:04:01.219Z,-5.00
2023-01-09T02:06:28.596Z,-4.98
2023-01-09T02:08:55.455Z,-5.13
2023-01-09T02:11:22.513Z,-5.24
2023-01-09T02:13:49.178Z,-5.06
2023-01-09T02:16:23.344Z,-5.03
2023-01-09T02:18:59.139Z,-4.93
2023-01-09T02:21:40.598Z,-4.72
2023-01-09T02:24:33.284Z,-4.86
2023-01-09T02:27:14.513Z,-4.59
2023-01-09T02:29:59.742Z,-4.66
2023-01-09T02:32:43.235Z,-4.43
2023-01-09T02:35:37.562Z,-4.65
2023-01-09T02:38:15.696Z,-4.69
2023-01-09T02:40:47.752Z,-4.77
2023-01-09T02:43:14.306Z,-5.30
2023-01-09T02:45:41.161Z,-4.96
2023-01-09T02:48:12.244Z,-4.88
2023-01-09T02:50:50.238Z,-4.71
2023-01-09T02:53:22.873Z,-4.67
2023-01-09T02:56:03.240Z,-4.94
2023-01-09T02:58:54.739Z,-4.84
2023-01-09T03:01:57.008Z,-4.94
2023-01-09T03:04:50.746Z,-4.90
2023-01-09T03:07:27.242Z,-5.01
2023-01-09T03:09:58.921Z,-5.20
2023-01-09T03:12:26.469Z,-4.89
2023-01-09T03:14:54.994Z,-4.82
2023-01-09T03:17:48.756Z,-4.87
2023-01-09T03:20:18.092Z,-4.62
2023-01-09T03:23:04.502Z,-4.64
2023-01-09T03:25:31.260Z,-4.57
2023-01-09T03:27:59.686Z,-4.50
2023-01-09T03:30:26.810Z,-4.41
2023-01-09T03:32:53.547Z,-4.35
2023-01-09T03:35:20.132Z,-4.31
2023-01-09T03:37:46.795Z,-4.14
2023-01-09T03:40:13.462Z,-4.08
2023-01-09T03:42:40.127Z,-4.00
2023-01-09T03:45:07.191Z,-3.78
2023-01-09T03:47:33.913Z,-3.57
2023-01-09T03:50:00.592Z,-3.34
2023-01-09T03:52:27.268Z,-3.40
2023-01-09T03:54:53.955Z,-3.19
2023-01-09T03:57:20.537Z,-3.22
2023-01-09T03:59:47.261Z,-3.25
2023-01-09T04:02:14.091Z,-3.21
2023-01-09T04:04:40.781Z,-3.24
2023-01-09T04:07:07.407Z,-3.35
2023-01-09T04:09:34.093Z,-3.26
2023-01-09T04:12:00.692Z,-3.03
2023-01-09T04:14:27.420Z,-3.00
2023-01-09T04:16:54.066Z,-3.00
2023-01-09T04:19:20.625Z,-3.00
2023-01-09T04:21:47.404Z,-2.80
2023-01-09T04:24:14.119Z,-2.93
2023-01-09T04:26:40.743Z,-2.85
2023-01-09T04:29:07.386Z,-2.84
2023-01-09T04:31:34.064Z,-2.85
2023-01-09T04:34:00.810Z,-3.29
2023-01-09T04:36:27.577Z,-3.28
2023-01-09T04:38:54.292Z,-3.33
2023-01-09T04:41:39.341Z,-2.99
2023-01-09T04:44:06.191Z,-2.77
2023-01-09T04:46:32.912Z,-2.67
2023-01-09T04:48:59.614Z,-2.73
2023-01-09T04:51:26.199Z,-2.86
2023-01-09T04:53:52.925Z,-3.27
2023-01-09T04:56:19.507Z,-2.98
2023-01-09T04:58:46.217Z,-2.83
2023-01-09T05:01:12.950Z,-3.14
2023-01-09T05:03:39.607Z,-3.30
2023-01-09T05:06:06.494Z,-3.18
2023-01-09T05:08:33.179Z,-2.94
2023-01-09T05:11:00.615Z,-2.60
2023-01-09T05:13:28.122Z,-2.77
2023-01-09T05:15:54.809Z,-2.67
2023-01-09T05:18:21.397Z,-2.55
2023-01-09T05:20:48.054Z,-2.62
2023-01-09T05:23:14.725Z,-2.74
2023-01-09T05:25:41.478Z,-2.59
2023-01-09T05:28:08.182Z,-2.43
2023-01-09T05:30:34.844Z,-2.75
2023-01-09T05:33:01.519Z,-2.51
2023-01-09T05:35:28.158Z,-2.31
2023-01-09T05:37:55.009Z,-2.23
2023-01-09T05:40:23.157Z,-2.04
2023-01-09T05:42:53.302Z,-2.25
2023-01-09T05:45:19.921Z,-2.27
2023-01-09T05:47:46.650Z,-2.46
2023-01-09T05:50:13.469Z,-2.31
2023-01-09T05:52:40.247Z,-2.26
2023-01-09T05:55:07.627Z,-2.22
2023-01-09T05:57:34.296Z,-2.11
2023-01-09T06:00:00.975Z,-2.33
2023-01-09T06:02:27.773Z,-2.32
2023-01-09T06:04:54.474Z,-2.33
2023-01-09T06:07:23.358Z,-2.33
2023-01-09T06:09:50.120Z,-2.39
2023-01-09T06:12:16.744Z,-2.16
2023-01-09T06:14:43.507Z,-2.18
2023-01-09T06:17:11.108Z,-2.36
2023-01-09T06:19:37.762Z,-2.28
2023-01-09T06:22:04.423Z,-2.24
2023-01-09T06:24:31.021Z,-2.04
2023-01-09T06:26:57.696Z,-2.06
2023-01-09T06:29:24.312Z,-2.03
2023-01-09T06:31:50.914Z,-1.78
2023-01-09T06:34:17.560Z,-1.73
2023-01-09T06:36:44.332Z,-1.78
2023-01-09T06:39:10.905Z,-1.61
2023-01-09T06:41:37.659Z,-1.40
2023-01-09T06:44:04.333Z,-1.27
2023-01-09T06:46:31.005Z,-1.37
2023-01-09T06:48:57.641Z,-1.24
2023-01-09T06:51:24.310Z,-1.01
2023-01-09T06:53:50.940Z,-0.94
2023-01-09T06:56:17.638Z,-1.09
2023-01-09T06:58:44.414Z,-0.99
2023-01-09T07:01:11.242Z,-1.10
2023-01-09T07:03:38.040Z,-0.92
2023-01-09T07:06:05.062Z,-0.80
2023-01-09T07:08:31.750Z,-0.87
2023-01-09T07:10:58.412Z,-0.80
2023-01-09T07:13:25.034Z,-0.63
2023-01-09T07:15:53.656Z,-0.43
2023-01-09T07:18:20.570Z,-0.59
2023-01-09T07:20:47.283Z,-1.01
2023-01-09T07:23:14.154Z,-0.76
2023-01-09T07:25:42.291Z,-0.85
2023-01-09T07:28:09.045Z,-0.88
2023-01-09T07:30:35.769Z,-0.74
2023-01-09T07:33:03.986Z,-0.44
2023-01-09T07:35:30.829Z,-0.24
2023-01-09T07:37:57.546Z,-0.36
2023-01-09T07:40:24.491Z,-0.38
2023-01-09T07:42:53.407Z,-0.29
2023-01-09T07:45:20.087Z,-0.10
2023-01-09T07:47:46.721Z,-0.15
2023-01-09T07:50:13.336Z,-0.16
2023-01-09T07:52:40.008Z,-0.15
2023-01-09T07:55:07.241Z,0.21
2023-01-09T07:57:33.911Z,0.25
2023-01-09T08:00:03.422Z,0.09
2023-01-09T08:02:30.135Z,0.16
2023-01-09T08:04:56.792Z,0.25
2023-01-09T08:07:23.377Z,0.30
2023-01-09T08:09:50.026Z,0.21
2023-01-09T08:12:16.700Z,-0.11
2023-01-09T08:14:43.414Z,0.28
2023-01-09T08:17:11.705Z,0.32
2023-01-09T08:19:38.463Z,0.50
2023-01-09T08:22:05.191Z,0.30
2023-01-09T08:24:32.842Z,0.27
2023-01-09T08:26:59.982Z,0.37
2023-01-09T08:29:26.582Z,0.69
2023-01-09T08:31:53.273Z,0.81
2023-01-09T08:34:20.013Z,0.96
2023-01-09T08:36:46.735Z,0.91
2023-01-09T08:39:13.368Z,1.06
2023-01-09T08:41:58.612Z,1.26
2023-01-09T08:44:43.676Z,1.07
2023-01-09T08:47:10.362Z,1.34
2023-01-09T08:49:38.227Z,1.47
2023-01-09T08:52:05.418Z,1.76
2023-01-09T08:54:32.148Z,1.64
2023-01-09T08:56:58.876Z,1.76
2023-01-09T08:59:25.480Z,1.97
2023-01-09T09:01:52.256Z,2.04
2023-01-09T09:04:19.004Z,1.94
2023-01-09T09:06:45.691Z,1.89
2023-01-09T09:09:12.488Z,2.01
2023-01-09T09:11:39.175Z,1.92
2023-01-09T09:14:25.828Z,1.99
2023-01-09T09:16:53.112Z,2.23
2023-01-09T09:19:19.733Z,2.44
2023-01-09T09:21:46.461Z,2.68
2023-01-09T09:24:13.223Z,2.84
2023-01-09T09:26:39.984Z,3.14
2023-01-09T09:29:06.748Z,3.21
2023-01-09T09:31:33.500Z,3.43
2023-01-09T09:34:00.319Z,3.27
2023-01-09T09:36:26.958Z,3.66
2023-01-09T09:38:53.639Z,4.17
2023-01-09T09:41:44.672Z,4.47
2023-01-09T09:44:52.682Z,4.74
2023-01-09T09:47:43.278Z,4.72
2023-01-09T09:50:54.949Z,4.50
2023-01-09T09:53:29.621Z,4.16
2023-01-09T09:55:57.656Z,4.13
2023-01-09T09:58:36.618Z,4.37
2023-01-09T10:01:03.733Z,4.61
2023-01-09T10:03:55.120Z,4.40
2023-01-09T10:06:31.371Z,4.90
2023-01-09T10:09:06.315Z,5.01
2023-01-09T10:11:56.085Z,5.32
2023-01-09T10:14:24.668Z,5.70
2023-01-09T10:17:09.608Z,5.63
2023-01-09T10:19:57.968Z,5.75
2023-01-09T10:23:06.489Z,5.86
2023-01-09T10:25:47.990Z,6.08
2023-01-09T10:28:39.843Z,6.50
2023-01-09T10:31:22.559Z,6.61
2023-01-09T10:34:21.503Z,6.79
2023-01-09T10:37:19.341Z,6.90
2023-01-09T10:39:52.620Z,6.98
2023-01-09T10:42:22.389Z,7.09
2023-01-09T10:45:12.321Z,7.34
2023-01-09T10:47:39.323Z,7.50
2023-01-09T10:50:20.645Z,7.38
2023-01-09T10:52:47.470Z,7.47
2023-01-09T10:55:19.295Z,7.58
2023-01-09T10:57:58.653Z,7.70
2023-01-09T11:00:25.627Z,7.47
2023-01-09T11:02:52.845Z,7.66
2023-01-09T11:05:25.065Z,7.62
2023-01-09T11:08:09.106Z,7.70
2023-01-09T11:10:58.637Z,7.50
2023-01-09T11:13:33.205Z,7.11
2023-01-09T11:16:05.538Z,7.24
2023-01-09T11:18:37.961Z,7.19
2023-01-09T11:21:32.873Z,7.79
2023-01-09T11:24:28.693Z,8.10
2023-01-09T11:27:23.625Z,8.30
2023-01-09T11:30:09.729Z,7.58
2023-01-09T11:32:36.443Z,8.01
2023-01-09T11:35:36.069Z,8.17
2023-01-09T11:38:10.651Z,8.19
2023-01-09T11:40:51.264Z,7.82
2023-01-09T11:43:25.697Z,8.41
2023-01-09T11:46:01.036Z,8.36
2023-01-09T11:48:33.005Z,8.65
2023-01-09T11:51:01.419Z,8.31
2023-01-09T11:53:28.182Z,8.71
2023-01-09T11:56:02.136Z,8.76
2023-01-09T11:58:32.001Z,8.61
2023-01-09T12:01:18.119Z,8.25
2023-01-09T12:03:59.826Z,8.51
2023-01-09T12:06:31.787Z,8.56
2023-01-09T12:09:02.743Z,8.54
2023-01-09T12:11:40.930Z,8.79
2023-01-09T12:14:26.020Z,8.52
2023-01-09T12:16:56.583Z,8.57
2023-01-09T12:19:49.085Z,8.50
2023-01-09T12:22:44.392Z,8.21
2023-01-09T12:25:38.647Z,8.07
2023-01-09T12:28:11.322Z,7.93
2023-01-09T12:30:44.358Z,8.10
2023-01-09T12:33:30.764Z,8.24
2023-01-09T12:36:19.157Z,8.06
2023-01-09T12:39:10.379Z,8.10
2023-01-09T12:41:52.241Z,7.97
2023-01-09T12:44:39.223Z,8.02
2023-01-09T12:47:39.912Z,8.01
2023-01-09T12:50:09.704Z,7.87
2023-01-09T12:52:44.270Z,7.69
2023-01-09T12:55:22.108Z,7.88
2023-01-09T12:57:53.379Z,7.58
2023-01-09T13:00:32.507Z,7.55
2023-01-09T13:03:12.056Z,7.41
2023-01-09T13:05:50.051Z,7.09
2023-01-09T13:08:32.538Z,6.92
2023-01-09T13:11:21.676Z,6.77
2023-01-09T13:14:02.387Z,6.86
2023-01-09T13:16:33.255Z,6.62
2023-01-09T13:19:01.919Z,6.60
2023-01-09T13:21:28.552Z,6.92
2023-01-09T13:24:02.344Z,6.84
2023-01-09T13:26:37.517Z,6.72
2023-01-09T13:29:16.805Z,6.65
2023-01-09T13:32:15.865Z,6.39
2023-01-09T13:34:42.519Z,6.52
2023-01-09T13:37:26.138Z,6.57
2023-01-09T13:40:00.606Z,6.53
2023-01-09T13:42:36.443Z,6.50
2023-01-09T13:45:25.483Z,6.40
2023-01-09T13:48:19.907Z,6.31
2023-01-09T13:50:47.254Z,6.30
2023-01-09T13:53:20.004Z,6.27
2023-01-09T13:55:59.295Z,6.01
2023-01-09T13:58:55.308Z,6.01
2023-01-09T14:01:24.639Z,5.72
2023-01-09T14:04:09.726Z,5.71
2023-01-09T14:06:36.422Z,5.85
2023-01-09T14:09:19.606Z,5.83
2023-01-09T14:11:46.265Z,5.72
2023-01-09T14:14:25.444Z,5.71
2023-01-09T14:16:52.174Z,5.58
2023-01-09T14:19:23.485Z,5.64
2023-01-09T14:21:55.301Z,5.41
2023-01-09T14:24:26.835Z,5.33
2023-01-09T14:26:57.320Z,5.41
2023-01-09T14:29:38.500Z,5.31
2023-01-09T14:32:23.671Z,5.21
2023-01-09T14:34:56.069Z,5.11
2023-01-09T14:37:22.781Z,4.92
2023-01-09T14:39:49.495Z,4.84
2023-01-09T14:42:19.261Z,4.70
2023-01-09T14:44:56.092Z,4.68
2023-01-09T14:47:31.725Z,4.41
2023-01-09T14:50:27.372Z,4.41
2023-01-09T14:53:04.682Z,4.22
2023-01-09T14:55:50.925Z,3.99
2023-01-09T14:58:26.020Z,3.86
2023-01-09T15:00:59.820Z,3.66
2023-01-09T15:03:29.494Z,3.61
2023-01-09T15:05:56.150Z,3.48
2023-01-09T15:08:24.064Z,3.36
2023-01-09T15:10:51.427Z,3.44
2023-01-09T15:13:21.438Z,3.41
2023-01-09T15:15:48.286Z,3.46
2023-01-09T15:18:21.212Z,3.47
2023-01-09T15:20:52.755Z,3.42
2023-01-09T15:23:24.068Z,3.22
2023-01-09T15:25:50.860Z,3.12
2023-01-09T15:28:25.342Z,2.94
2023-01-09T15:31:16.966Z,3.25
2023-01-09T15:33:44.864Z,3.13
2023-01-09T15:36:31.541Z,2.93
2023-01-09T15:38:58.340Z,2.79
2023-01-09T15:41:45.014Z,2.84
2023-01-09T15:44:27.384Z,2.76
2023-01-09T15:46:57.698Z,2.64
2023-01-09T15:49:24.309Z,2.71
2023-01-09T15:51:51.042Z,2.83
2023-01-09T15:54:30.418Z,2.88
2023-01-09T15:57:25.014Z,2.58
2023-01-09T15:59:54.366Z,2.29
2023-01-09T16:02:43.047Z,2.37
2023-01-09T16:05:15.920Z,2.42
2023-01-09T16:07:49.334Z,2.46
2023-01-09T16:10:34.353Z,2.79
2023-01-09T16:13:01.339Z,2.74
2023-01-09T16:15:29.063Z,2.74
2023-01-09T16:18:15.390Z,2.60
2023-01-09T16:20:42.376Z,2.52
2023-01-09T16:23:24.039Z,2.46
2023-01-09T16:25:50.817Z,2.39
2023-01-09T16:28:23.103Z,2.58
2023-01-09T16:30:55.760Z,2.52
2023-01-09T16:33:24.229Z,2.69
2023-01-09T16:35:51.294Z,2.60
2023-01-09T16:38:18.164Z,2.41
2023-01-09T16:41:23.271Z,2.48
2023-01-09T16:43:50.706Z,2.52
2023-01-09T16:46:21.189Z,2.50
2023-01-09T16:48:47.984Z,2.66
2023-01-09T16:51:16.509Z,2.76
2023-01-09T16:53:43.699Z,2.60
2023-01-09T16:56:22.164Z,2.70
2023-01-09T16:58:48.965Z,2.57
2023-01-09T17:01:15.882Z,2.76
2023-01-09T17:03:44.071Z,2.83
2023-01-09T17:06:24.373Z,2.61
2023-01-09T17:08:51.677Z,2.62
2023-01-09T17:11:22.984Z,2.36
2023-01-09T17:13:49.745Z,2.58
2023-01-09T17:16:19.693Z,2.81
2023-01-09T17:18:46.361Z,2.86
2023-01-09T17:21:20.909Z,2.50
2023-01-09T17:23:47.807Z,2.70
2023-01-09T17:26:39.013Z,2.79
2023-01-09T17:29:05.711Z,2.86
2023-01-09T17:31:32.406Z,2.82
2023-01-09T17:33:59.284Z,2.85
2023-01-09T17:36:32.140Z,2.84
2023-01-09T17:38:59.389Z,2.63
2023-01-09T17:41:27.720Z,2.64
2023-01-09T17:43:54.468Z,2.63
2023-01-09T17:46:34.939Z,2.39
2023-01-09T17:49:02.243Z,2.36
2023-01-09T17:51:29.433Z,2.50
2023-01-09T17:53:56.398Z,2.62
2023-01-09T17:56:24.820Z,2.61
2023-01-09T17:58:51.459Z,2.64
2023-01-09T18:01:18.182Z,2.49
2023-01-09T18:03:46.928Z,2.66
2023-01-09T18:06:13.761Z,2.65
2023-01-09T18:08:40.624Z,2.34
2023-01-09T18:11:08.957Z,2.50
2023-01-09T18:13:35.678Z,2.66
2023-01-09T18:16:02.411Z,2.60
2023-01-09T18:18:29.420Z,2.47
2023-01-09T18:20:56.284Z,2.56
2023-01-09T18:23:23.044Z,2.51
2023-01-09T18:25:49.656Z,2.61
2023-01-09T18:28:16.471Z,2.69
2023-01-09T18:30:47.800Z,2.44
2023-01-09T18:33:14.813Z,2.53
2023-01-09T18:35:42.260Z,2.43
2023-01-09T18:38:09.049Z,2.45
2023-01-09T18:40:37.018Z,2.48
2023-01-09T18:43:07.965Z,2.55
2023-01-09T18:45:34.719Z,2.46
2023-01-09T18:48:01.405Z,2.41
2023-01-09T18:50:28.019Z,2.30
2023-01-09T18:52:55.452Z,2.45
2023-01-09T18:55:22.046Z,2.41
2023-01-09T18:57:48.937Z,2.52
2023-01-09T19:00:15.894Z,2.57
2023-01-09T19:02:42.592Z,2.57
2023-01-09T19:05:09.425Z,2.26
2023-01-09T19:07:36.177Z,2.25
2023-01-09T19:10:02.804Z,2.26
2023-01-09T19:12:29.506Z,2.16
2023-01-09T19:14:56.145Z,2.25
2023-01-09T19:17:22.823Z,2.19
2023-01-09T19:19:50.100Z,2.21
2023-01-09T19:22:16.878Z,2.19
2023-01-09T19:24:43.562Z,2.45
2023-01-09T19:27:10.172Z,2.29
2023-01-09T19:29:37.037Z,2.46
2023-01-09T19:32:04.628Z,2.31
2023-01-09T19:34:31.377Z,2.36
2023-01-09T19:36:58.134Z,2.29
2023-01-09T19:39:24.778Z,2.45
2023-01-09T19:41:51.414Z,2.27
2023-01-09T19:44:19.070Z,2.40
2023-01-09T19:46:45.719Z,2.38
2023-01-09T19:49:12.339Z,2.28
2023-01-09T19:51:38.994Z,2.38
2023-01-09T19:54:08.626Z,2.44
2023-01-09T19:56:36.584Z,2.46
2023-01-09T19:59:03.951Z,2.31
2023-01-09T20:01:32.262Z,2.39
2023-01-09T20:04:04.290Z,2.30
2023-01-09T20:06:31.115Z,2.46
2023-01-09T20:08:59.024Z,2.29
2023-01-09T20:11:27.205Z,2.36
2023-01-09T20:13:55.609Z,2.56
2023-01-09T20:16:28.152Z,2.28
2023-01-09T20:18:57.585Z,2.26
2023-01-09T20:21:26.348Z,2.41
2023-01-09T20:23:54.535Z,2.34
2023-01-09T20:26:21.560Z,2.27
2023-01-09T20:28:48.209Z,2.47
2023-01-09T20:31:16.651Z,2.41
2023-01-09T20:33:43.826Z,2.40
2023-01-09T20:36:10.527Z,2.37
2023-01-09T20:38:37.673Z,2.27
2023-01-09T20:41:09.822Z,2.35
2023-01-09T20:43:36.498Z,2.27
2023-01-09T20:46:04.167Z,2.25
2023-01-09T20:48:30.988Z,2.28
2023-01-09T20:51:03.796Z,2.18
2023-01-09T20:53:30.437Z,2.17
2023-01-09T20:56:04.512Z,2.20
2023-01-09T20:58:31.090Z,2.02
2023-01-09T21:00:57.806Z,2.10
2023-01-09T21:03:24.405Z,2.27
2023-01-09T21:05:51.064Z,2.20
2023-01-09T21:08:18.016Z,2.22
2023-01-09T21:10:44.700Z,2.05
2023-01-09T21:13:11.329Z,2.15
2023-01-09T21:15:38.862Z,2.27
2023-01-09T21:18:05.815Z,2.08
2023-01-09T21:20:32.561Z,2.12
2023-01-09T21:22:59.282Z,2.09
2023-01-09T21:25:25.898Z,2.01
2023-01-09T21:27:52.673Z,2.26
2023-01-09T21:30:19.406Z,2.19
2023-01-09T21:32:46.143Z,2.11
2023-01-09T21:35:12.997Z,2.20
2023-01-09T21:37:39.660Z,2.09
2023-01-09T21:40:12.837Z,2.19
2023-01-09T21:42:58.203Z,2.19
2023-01-09T21:45:43.365Z,2.30
2023-01-09T21:48:10.076Z,2.14
2023-01-09T21:50:36.704Z,2.21
2023-01-09T21:53:03.491Z,2.38
2023-01-09T21:55:32.153Z,2.21
2023-01-09T21:58:01.144Z,2.36
2023-01-09T22:00:28.051Z,2.29
2023-01-09T22:02:55.048Z,2.22
2023-01-09T22:05:21.870Z,2.28
2023-01-09T22:07:48.580Z,2.23
2023-01-09T22:10:15.464Z,2.26
2023-01-09T22:13:02.099Z,2.20
2023-01-09T22:15:28.729Z,2.09
2023-01-09T22:17:55.458Z,2.22
2023-01-09T22:20:22.143Z,2.09
2023-01-09T22:22:49.492Z,2.32
2023-01-09T22:25:16.529Z,1.92
2023-01-09T22:27:43.878Z,2.00
2023-01-09T22:30:11.448Z,2.22
2023-01-09T22:32:38.086Z,2.14
2023-01-09T22:35:05.160Z,2.22
2023-01-09T22:37:31.866Z,1.97
2023-01-09T22:39:58.520Z,2.09
2023-01-09T22:42:25.128Z,2.19
2023-01-09T22:44:51.807Z,2.01
2023-01-09T22:47:18.377Z,1.73
2023-01-09T22:49:52.624Z,1.77
2023-01-09T22:52:19.995Z,1.90
2023-01-09T22:54:47.091Z,1.88
2023-01-09T22:57:13.656Z,1.91
2023-01-09T22:59:40.420Z,1.84
2023-01-09T23:02:07.170Z,1.85
2023-01-09T23:04:33.925Z,1.80
2023-01-09T23:07:00.671Z,1.60
2023-01-09T23:09:27.327Z,1.87
2023-01-09T23:12:03.384Z,1.72
2023-01-09T23:14:31.879Z,1.53
2023-01-09T23:16:58.648Z,1.61
2023-01-09T23:19:25.560Z,1.72
2023-01-09T23:21:52.272Z,1.86
2023-01-09T23:24:19.015Z,1.83
2023-01-09T23:26:46.454Z,1.74
2023-01-09T23:29:13.344Z,1.88
2023-01-09T23:31:40.084Z,1.81
2023-01-09T23:34:08.290Z,1.78
2023-01-09T23:36:35.738Z,1.80
2023-01-09T23:39:04.257Z,1.80
2023-01-09T23:41:49.529Z,1.79
2023-01-09T23:44:16.342Z,1.89
2023-01-09T23:46:42.942Z,1.65
2023-01-09T23:49:10.414Z,1.73
2023-01-09T23:51:37.043Z,1.69
2023-01-09T23:54:03.824Z,1.83
2023-01-09T23:56:31.299Z,1.80
2023-01-09T23:58:58.008Z,1.75
